createdAt,value
2023-01-19T00:01:15.170Z,96489.93
2023-01-19T00:03:43.405Z,96483.71
2023-01-19T00:06:12.110Z,96489.20
2023-01-19T00:08:40.475Z,96492.45
2023-01-19T00:11:08.624Z,96493.81
2023-01-19T00:13:37.131Z,96493.23
2023-01-19T00:16:07.438Z,96494.10
2023-01-19T00:18:35.578Z,96487.40
2023-01-19T00:21:03.798Z,96482.80
2023-01-19T00:23:31.909Z,96490.94
2023-01-19T00:26:00.048Z,96483.50
2023-01-19T00:28:28.283Z,96499.14
2023-01-19T00:30:56.857Z,96500.00
2023-01-19T00:33:25.087Z,96496.38
2023-01-19T00:35:56.960Z,96476.58
2023-01-19T00:38:25.146Z,96483.87
2023-01-19T00:40:53.329Z,96484.18
2023-01-19T00:43:21.907Z,96497.77
2023-01-19T00:45:50.168Z,96494.02
2023-01-19T00:48:18.384Z,96495.85
2023-01-19T00:50:47.861Z,96493.48
2023-01-19T00:53:15.998Z,96487.52
2023-01-19T00:55:44.231Z,96477.23
2023-01-19T00:58:12.385Z,96480.98
2023-01-19T01:00:40.525Z,96480.20
2023-01-19T01:03:09.961Z,96475.27
2023-01-19T01:05:42.446Z,96468.41
2023-01-19T01:08:10.585Z,96467.58
2023-01-19T01:10:38.657Z,96453.72
2023-01-19T01:13:20.790Z,96448.69
2023-01-19T01:15:53.046Z,96449.09
2023-01-19T01:18:22.216Z,96448.76
2023-01-19T01:20:50.315Z,96445.79
2023-01-19T01:23:23.018Z,96442.69
2023-01-19T01:25:51.337Z,96433.08
2023-01-19T01:28:19.441Z,96433.91
2023-01-19T01:30:48.022Z,96425.45
2023-01-19T01:33:16.165Z,96428.51
2023-01-19T01:36:04.793Z,96418.65
2023-01-19T01:38:33.103Z,96418.23
2023-01-19T01:41:01.233Z,96422.77
2023-01-19T01:43:58.745Z,96417.84
2023-01-19T01:46:29.639Z,96408.73
2023-01-19T01:49:17.637Z,96400.99
2023-01-19T01:51:51.138Z,96406.23
2023-01-19T01:54:27.648Z,96407.71
2023-01-19T01:57:02.955Z,96407.33
2023-01-19T01:59:39.154Z,96414.54
2023-01-19T02:02:42.417Z,96412.27
2023-01-19T02:05:33.975Z,96405.67
2023-01-19T02:08:31.833Z,96404.80
2023-01-19T02:11:20.096Z,96400.77
2023-01-19T02:13:48.841Z,96394.27
2023-01-19T02:16:17.837Z,96390.77
2023-01-19T02:18:46.036Z,96391.66
2023-01-19T02:21:44.587Z,96392.50
2023-01-19T02:24:12.917Z,96374.09
2023-01-19T02:26:47.602Z,96380.03
2023-01-19T02:29:20.867Z,96385.39
2023-01-19T02:31:49.009Z,96382.46
2023-01-19T02:34:20.910Z,96381.62
2023-01-19T02:36:56.516Z,96389.80
2023-01-19T02:39:41.526Z,96392.75
2023-01-19T02:42:27.148Z,96393.04
2023-01-19T02:44:57.134Z,96392.86
2023-01-19T02:47:25.286Z,96397.79
2023-01-19T02:49:59.005Z,96400.07
2023-01-19T02:52:28.065Z,96389.46
2023-01-19T02:55:18.204Z,96375.89
2023-01-19T02:58:13.465Z,96382.41
2023-01-19T03:00:41.507Z,96387.27
2023-01-19T03:03:33.084Z,96391.44
2023-01-19T03:06:05.004Z,96383.82
2023-01-19T03:08:53.053Z,96389.80
2023-01-19T03:11:25.165Z,96383.64
2023-01-19T03:14:01.683Z,96369.80
2023-01-19T03:16:42.788Z,96372.78
2023-01-19T03:19:20.460Z,96371.01
2023-01-19T03:21:57.196Z,96377.80
2023-01-19T03:24:30.955Z,96381.50
2023-01-19T03:27:07.073Z,96387.80
2023-01-19T03:29:38.633Z,96382.64
2023-01-19T03:32:12.817Z,96376.80
2023-01-19T03:34:43.175Z,96375.51
2023-01-19T03:37:14.269Z,96383.56
2023-01-19T03:39:42.723Z,96390.44
2023-01-19T03:42:16.219Z,96388.89
2023-01-19T03:44:46.630Z,96395.77
2023-01-19T03:47:15.209Z,96398.68
2023-01-19T03:49:45.716Z,96401.23
2023-01-19T03:52:14.279Z,96406.19
2023-01-19T03:54:43.437Z,96402.71
2023-01-19T03:57:11.543Z,96400.95
2023-01-19T03:59:39.602Z,96399.60
2023-01-19T04:02:08.078Z,96398.42
2023-01-19T04:04:36.202Z,96395.13
2023-01-19T04:07:04.258Z,96395.98
2023-01-19T04:09:32.485Z,96390.25
2023-01-19T04:12:01.944Z,96378.98
2023-01-19T04:14:30.088Z,96366.52
2023-01-19T04:16:58.185Z,96368.55
2023-01-19T04:19:26.310Z,96376.02
2023-01-19T04:21:55.466Z,96385.73
2023-01-19T04:24:23.562Z,96387.10
2023-01-19T04:26:53.557Z,96388.63
2023-01-19T04:29:21.641Z,96393.70
2023-01-19T04:31:49.697Z,96393.11
2023-01-19T04:34:17.833Z,96392.95
2023-01-19T04:36:46.762Z,96388.10
2023-01-19T04:39:14.885Z,96385.35
2023-01-19T04:41:43.539Z,96376.40
2023-01-19T04:44:11.661Z,96387.98
2023-01-19T04:46:40.216Z,96391.59
2023-01-19T04:49:10.127Z,96401.70
2023-01-19T04:51:38.236Z,96412.30
2023-01-19T04:54:09.043Z,96415.50
2023-01-19T04:56:37.321Z,96420.02
2023-01-19T04:59:05.388Z,96431.27
2023-01-19T05:01:33.538Z,96436.89
2023-01-19T05:04:03.769Z,96439.23
2023-01-19T05:06:32.168Z,96444.52
2023-01-19T05:09:00.522Z,96440.44
2023-01-19T05:11:28.669Z,96440.23
2023-01-19T05:13:56.811Z,96439.09
2023-01-19T05:16:25.102Z,96432.65
2023-01-19T05:18:53.323Z,96442.91
2023-01-19T05:21:21.505Z,96445.48
2023-01-19T05:23:49.579Z,96457.13
2023-01-19T05:26:17.717Z,96468.79
2023-01-19T05:28:45.834Z,96473.41
2023-01-19T05:31:14.009Z,96470.83
2023-01-19T05:33:42.593Z,96478.75
2023-01-19T05:36:10.717Z,96483.59
2023-01-19T05:38:38.754Z,96487.28
2023-01-19T05:41:06.906Z,96482.29
2023-01-19T05:43:35.012Z,96490.59
2023-01-19T05:46:06.091Z,96495.55
2023-01-19T05:48:34.233Z,96492.45
2023-01-19T05:51:02.326Z,96499.06
2023-01-19T05:53:31.068Z,96493.90
2023-01-19T05:56:05.857Z,96492.53
2023-01-19T05:58:35.464Z,96493.30
2023-01-19T06:01:05.989Z,96494.30
2023-01-19T06:03:35.626Z,96484.57
2023-01-19T06:06:04.336Z,96479.94
2023-01-19T06:08:32.674Z,96482.20
2023-01-19T06:11:00.822Z,96476.17
2023-01-19T06:13:28.941Z,96484.76
2023-01-19T06:16:02.174Z,96478.94
2023-01-19T06:18:30.322Z,96474.52
2023-01-19T06:21:01.254Z,96475.92
2023-01-19T06:23:34.295Z,96475.08
2023-01-19T06:26:03.037Z,96464.42
2023-01-19T06:28:31.827Z,96463.11
2023-01-19T06:30:59.960Z,96471.10
2023-01-19T06:33:28.453Z,96478.24
2023-01-19T06:35:56.655Z,96483.49
2023-01-19T06:38:24.774Z,96480.74
2023-01-19T06:41:02.698Z,96466.59
2023-01-19T06:43:31.956Z,96456.58
2023-01-19T06:46:00.731Z,96463.09
2023-01-19T06:48:28.965Z,96462.64
2023-01-19T06:50:58.724Z,96464.88
2023-01-19T06:53:30.174Z,96464.33
2023-01-19T06:56:01.483Z,96462.88
2023-01-19T06:58:30.379Z,96464.81
2023-01-19T07:01:06.639Z,96449.04
2023-01-19T07:03:37.396Z,96454.30
2023-01-19T07:06:08.793Z,96459.05
2023-01-19T07:08:38.209Z,96458.52
2023-01-19T07:11:25.690Z,96458.83
2023-01-19T07:13:58.651Z,96460.64
2023-01-19T07:16:26.964Z,96453.14
2023-01-19T07:18:55.517Z,96441.92
2023-01-19T07:21:23.822Z,96431.27
2023-01-19T07:23:52.860Z,96419.80
2023-01-19T07:26:24.956Z,96431.65
2023-01-19T07:28:53.098Z,96449.80
2023-01-19T07:31:21.334Z,96461.83
2023-01-19T07:33:50.041Z,96469.79
2023-01-19T07:36:18.192Z,96456.75
2023-01-19T07:38:46.329Z,96457.17
2023-01-19T07:41:14.529Z,96454.94
2023-01-19T07:43:42.805Z,96455.61
2023-01-19T07:46:10.984Z,96453.36
2023-01-19T07:48:39.788Z,96457.69
2023-01-19T07:51:12.985Z,96463.73
2023-01-19T07:53:41.956Z,96469.30
2023-01-19T07:56:11.221Z,96471.85
2023-01-19T07:58:39.913Z,96485.23
2023-01-19T08:01:13.671Z,96490.17
2023-01-19T08:03:42.457Z,96486.15
2023-01-19T08:06:21.061Z,96487.96
2023-01-19T08:08:49.898Z,96491.14
2023-01-19T08:11:17.987Z,96487.45
2023-01-19T08:13:46.084Z,96476.52
2023-01-19T08:16:14.197Z,96474.59
2023-01-19T08:18:42.772Z,96472.33
2023-01-19T08:21:11.017Z,96465.23
2023-01-19T08:23:39.217Z,96462.47
2023-01-19T08:26:24.295Z,96469.48
2023-01-19T08:28:52.424Z,96472.42
2023-01-19T08:31:24.468Z,96462.59
2023-01-19T08:33:53.922Z,96461.40
2023-01-19T08:36:22.707Z,96461.02
2023-01-19T08:38:51.328Z,96457.20
2023-01-19T08:41:19.673Z,96457.77
2023-01-19T08:43:49.196Z,96455.45
2023-01-19T08:46:20.811Z,96457.98
2023-01-19T08:48:50.372Z,96461.27
2023-01-19T08:51:19.589Z,96457.21
2023-01-19T08:53:48.321Z,96451.46
2023-01-19T08:56:17.047Z,96451.04
2023-01-19T08:58:49.367Z,96447.45
2023-01-19T09:01:25.580Z,96444.31
2023-01-19T09:03:54.632Z,96445.34
2023-01-19T09:06:24.468Z,96441.78
2023-01-19T09:08:52.583Z,96435.80
2023-01-19T09:11:20.739Z,96432.10
2023-01-19T09:13:48.890Z,96437.41
2023-01-19T09:16:17.055Z,96440.55
2023-01-19T09:18:46.192Z,96439.08
2023-01-19T09:21:15.259Z,96435.41
2023-01-19T09:23:43.347Z,96430.31
2023-01-19T09:26:11.688Z,96422.23
2023-01-19T09:28:39.848Z,96422.23
2023-01-19T09:31:09.333Z,96430.45
2023-01-19T09:33:37.807Z,96441.63
2023-01-19T09:36:06.489Z,96434.70
2023-01-19T09:38:34.664Z,96430.88
2023-01-19T09:41:04.496Z,96433.95
2023-01-19T09:43:43.165Z,96437.55
2023-01-19T09:46:24.499Z,96444.60
2023-01-19T09:48:59.667Z,96441.50
2023-01-19T09:51:43.760Z,96443.17
2023-01-19T09:54:41.121Z,96438.02
2023-01-19T09:57:13.679Z,96433.48
2023-01-19T09:59:43.935Z,96419.58
2023-01-19T10:02:29.694Z,96410.73
2023-01-19T10:05:29.626Z,96407.37
2023-01-19T10:08:35.941Z,96406.04
2023-01-19T10:11:10.204Z,96410.45
2023-01-19T10:13:52.422Z,96409.20
2023-01-19T10:16:33.878Z,96418.77
2023-01-19T10:19:29.620Z,96424.73
2023-01-19T10:22:03.874Z,96420.80
2023-01-19T10:24:44.557Z,96420.34
2023-01-19T10:27:26.274Z,96418.13
2023-01-19T10:29:55.099Z,96412.50
2023-01-19T10:32:32.791Z,96414.46
2023-01-19T10:35:02.483Z,96403.20
2023-01-19T10:37:34.487Z,96400.39
2023-01-19T10:40:27.559Z,96394.92
2023-01-19T10:42:57.033Z,96401.02
2023-01-19T10:45:30.874Z,96399.30
2023-01-19T10:48:07.346Z,96390.77
2023-01-19T10:50:41.188Z,96392.84
2023-01-19T10:53:22.772Z,96398.02
2023-01-19T10:56:12.269Z,96406.01
2023-01-19T10:58:40.818Z,96396.53
2023-01-19T11:01:22.941Z,96401.65
2023-01-19T11:03:53.436Z,96406.11
2023-01-19T11:06:26.574Z,96404.89
2023-01-19T11:09:10.802Z,96409.93
2023-01-19T11:11:51.556Z,96407.39
2023-01-19T11:14:24.169Z,96399.84
2023-01-19T11:16:58.353Z,96393.79
2023-01-19T11:19:31.738Z,96399.20
2023-01-19T11:22:21.922Z,96403.37
2023-01-19T11:24:50.767Z,96402.55
2023-01-19T11:27:22.547Z,96395.15
2023-01-19T11:30:05.313Z,96396.36
2023-01-19T11:32:36.986Z,96399.39
2023-01-19T11:35:41.229Z,96390.05
2023-01-19T11:38:12.103Z,96377.80
2023-01-19T11:40:42.103Z,96373.30
2023-01-19T11:43:13.571Z,96381.61
2023-01-19T11:45:44.280Z,96390.52
2023-01-19T11:48:25.270Z,96388.20
2023-01-19T11:50:54.660Z,96383.15
2023-01-19T11:53:28.308Z,96392.38
2023-01-19T11:56:11.012Z,96397.59
2023-01-19T11:58:43.289Z,96399.48
2023-01-19T12:01:24.693Z,96400.11
2023-01-19T12:04:28.728Z,96393.46
2023-01-19T12:06:59.136Z,96405.13
2023-01-19T12:09:39.113Z,96415.34
2023-01-19T12:12:19.822Z,96416.67
2023-01-19T12:15:22.783Z,96419.00
2023-01-19T12:17:58.095Z,96424.05
2023-01-19T12:20:39.220Z,96428.37
2023-01-19T12:23:25.910Z,96428.77
2023-01-19T12:26:24.903Z,96419.29
2023-01-19T12:28:54.667Z,96417.52
2023-01-19T12:31:24.112Z,96436.39
2023-01-19T12:33:52.924Z,96438.02
2023-01-19T12:36:30.075Z,96441.33
2023-01-19T12:39:23.698Z,96445.55
2023-01-19T12:42:24.471Z,96451.20
2023-01-19T12:45:23.217Z,96454.36
2023-01-19T12:47:56.399Z,96450.65
2023-01-19T12:50:26.111Z,96458.27
2023-01-19T12:52:58.772Z,96460.30
2023-01-19T12:55:31.509Z,96464.89
2023-01-19T12:58:20.611Z,96467.95
2023-01-19T13:01:10.589Z,96469.23
2023-01-19T13:04:09.722Z,96478.80
2023-01-19T13:06:49.935Z,96486.42
2023-01-19T13:09:38.186Z,96491.31
2023-01-19T13:12:15.360Z,96493.48
2023-01-19T13:14:44.194Z,96488.02
2023-01-19T13:17:38.746Z,96471.40
2023-01-19T13:20:22.121Z,96456.29
2023-01-19T13:22:52.365Z,96458.62
2023-01-19T13:25:39.052Z,96461.91
2023-01-19T13:28:10.335Z,96474.41
2023-01-19T13:30:59.050Z,96475.02
2023-01-19T13:33:33.738Z,96485.54
2023-01-19T13:36:01.839Z,96483.88
2023-01-19T13:38:32.872Z,96479.02
2023-01-19T13:41:03.008Z,96470.03
2023-01-19T13:43:37.660Z,96478.55
2023-01-19T13:46:06.265Z,96488.48
2023-01-19T13:48:34.604Z,96489.05
2023-01-19T13:51:16.683Z,96489.08
2023-01-19T13:53:59.264Z,96486.16
2023-01-19T13:56:29.845Z,96482.23
2023-01-19T13:59:12.709Z,96485.23
2023-01-19T14:01:45.907Z,96483.64
2023-01-19T14:04:35.002Z,96491.13
2023-01-19T14:07:13.901Z,96490.36
2023-01-19T14:09:42.105Z,96501.64
2023-01-19T14:12:17.522Z,96504.50
2023-01-19T14:14:49.815Z,96513.79
2023-01-19T14:17:28.818Z,96518.47
2023-01-19T14:20:00.989Z,96521.91
2023-01-19T14:22:45.004Z,96516.41
2023-01-19T14:25:30.367Z,96523.16
2023-01-19T14:28:40.249Z,96527.02
2023-01-19T14:31:28.681Z,96525.12
2023-01-19T14:33:58.613Z,96526.67
2023-01-19T14:36:34.002Z,96531.40
2023-01-19T14:39:03.577Z,96531.84
2023-01-19T14:41:52.918Z,96529.60
2023-01-19T14:44:38.940Z,96532.23
2023-01-19T14:47:25.321Z,96534.55
2023-01-19T14:49:56.409Z,96532.97
2023-01-19T14:52:37.335Z,96533.09
2023-01-19T14:55:08.389Z,96523.11
2023-01-19T14:57:37.873Z,96525.47
2023-01-19T15:00:17.829Z,96524.01
2023-01-19T15:02:47.501Z,96519.05
2023-01-19T15:05:16.131Z,96512.46
2023-01-19T15:07:46.406Z,96522.77
2023-01-19T15:10:23.983Z,96522.36
2023-01-19T15:12:54.597Z,96521.53
2023-01-19T15:15:35.761Z,96529.38
2023-01-19T15:18:06.904Z,96528.09
2023-01-19T15:20:35.074Z,96536.11
2023-01-19T15:23:03.207Z,96542.20
2023-01-19T15:25:31.642Z,96544.48
2023-01-19T15:28:00.078Z,96555.89
2023-01-19T15:30:33.539Z,96555.48
2023-01-19T15:33:02.514Z,96558.84
2023-01-19T15:35:30.673Z,96572.30
2023-01-19T15:37:58.797Z,96567.74
2023-01-19T15:40:26.936Z,96576.41
2023-01-19T15:42:55.500Z,96585.11
2023-01-19T15:45:34.088Z,96591.23
2023-01-19T15:48:08.092Z,96594.92
2023-01-19T15:50:39.655Z,96599.84
2023-01-19T15:53:15.891Z,96613.23
2023-01-19T15:55:44.709Z,96618.33
2023-01-19T15:58:14.130Z,96627.55
2023-01-19T16:00:42.339Z,96635.65
2023-01-19T16:03:11.263Z,96641.23
2023-01-19T16:05:43.551Z,96641.67
2023-01-19T16:08:12.000Z,96646.45
2023-01-19T16:10:44.052Z,96655.19
2023-01-19T16:13:12.363Z,96654.02
2023-01-19T16:15:42.543Z,96663.73
2023-01-19T16:18:10.944Z,96665.75
2023-01-19T16:20:39.101Z,96676.19
2023-01-19T16:23:15.021Z,96679.46
2023-01-19T16:25:43.925Z,96680.80
2023-01-19T16:28:12.103Z,96684.80
2023-01-19T16:30:40.255Z,96700.21
2023-01-19T16:33:09.102Z,96702.91
2023-01-19T16:35:37.201Z,96706.83
2023-01-19T16:38:05.335Z,96713.89
2023-01-19T16:40:33.574Z,96726.95
2023-01-19T16:43:01.682Z,96730.26
2023-01-19T16:45:31.134Z,96702.38
2023-01-19T16:47:59.326Z,96691.94
2023-01-19T16:50:27.423Z,96679.06
2023-01-19T16:52:59.094Z,96675.73
2023-01-19T16:55:27.354Z,96684.52
2023-01-19T16:57:55.505Z,96694.31
2023-01-19T17:00:23.764Z,96695.52
2023-01-19T17:02:51.912Z,96670.23
2023-01-19T17:05:20.108Z,96669.02
2023-01-19T17:07:48.184Z,96683.15
2023-01-19T17:10:16.485Z,96691.14
2023-01-19T17:12:44.552Z,96704.13
2023-01-19T17:15:12.636Z,96707.80
2023-01-19T17:17:40.743Z,96706.02
2023-01-19T17:20:10.008Z,96709.33
2023-01-19T17:22:38.422Z,96712.38
2023-01-19T17:25:07.648Z,96714.30
2023-01-19T17:27:36.674Z,96717.94
2023-01-19T17:30:05.240Z,96719.98
2023-01-19T17:32:33.393Z,96725.41
2023-01-19T17:35:01.551Z,96736.29
2023-01-19T17:37:29.761Z,96739.24
2023-01-19T17:39:57.857Z,96732.66
2023-01-19T17:42:25.924Z,96734.48
2023-01-19T17:44:54.047Z,96742.69
2023-01-19T17:47:25.495Z,96745.14
2023-01-19T17:49:53.613Z,96746.67
2023-01-19T17:52:21.719Z,96747.89
2023-01-19T17:54:49.919Z,96758.85
2023-01-19T17:57:18.108Z,96774.39
2023-01-19T17:59:47.878Z,96778.68
2023-01-19T18:02:16.218Z,96785.31
2023-01-19T18:04:44.610Z,96778.65
2023-01-19T18:07:12.735Z,96777.35
2023-01-19T18:09:40.858Z,96783.63
2023-01-19T18:12:09.011Z,96785.95
2023-01-19T18:14:38.190Z,96785.45
2023-01-19T18:17:06.302Z,96789.55
2023-01-19T18:19:34.571Z,96784.08
2023-01-19T18:22:02.804Z,96791.63
2023-01-19T18:24:31.002Z,96797.73
2023-01-19T18:26:59.162Z,96805.94
2023-01-19T18:29:27.834Z,96807.91
2023-01-19T18:31:55.964Z,96808.38
2023-01-19T18:34:24.296Z,96815.29
2023-01-19T18:36:52.398Z,96819.86
2023-01-19T18:39:20.534Z,96823.61
2023-01-19T18:41:48.614Z,96836.37
2023-01-19T18:44:16.680Z,96844.52
2023-01-19T18:46:44.828Z,96844.29
2023-01-19T18:49:13.122Z,96853.62
2023-01-19T18:51:42.016Z,96861.90
2023-01-19T18:54:11.551Z,96858.98
2023-01-19T18:56:39.910Z,96859.96
2023-01-19T18:59:08.035Z,96855.29
2023-01-19T19:01:36.504Z,96859.98
2023-01-19T19:04:05.090Z,96854.45
2023-01-19T19:06:34.299Z,96849.16
2023-01-19T19:09:03.263Z,96862.13
2023-01-19T19:11:31.542Z,96863.79
2023-01-19T19:14:02.891Z,96861.14
2023-01-19T19:16:33.280Z,96860.28
2023-01-19T19:19:03.075Z,96851.41
2023-01-19T19:21:31.179Z,96844.88
2023-01-19T19:23:59.351Z,96833.58
2023-01-19T19:26:28.498Z,96825.79
2023-01-19T19:28:56.986Z,96827.74
2023-01-19T19:31:27.699Z,96826.88
2023-01-19T19:33:58.227Z,96836.44
2023-01-19T19:36:28.589Z,96840.21
2023-01-19T19:38:59.609Z,96842.34
2023-01-19T19:41:29.099Z,96846.41
2023-01-19T19:43:57.295Z,96848.68
2023-01-19T19:46:26.833Z,96854.52
2023-01-19T19:48:55.599Z,96856.40
2023-01-19T19:51:27.322Z,96857.22
2023-01-19T19:54:01.310Z,96862.11
2023-01-19T19:56:34.043Z,96863.87
2023-01-19T19:59:02.127Z,96859.06
2023-01-19T20:01:33.442Z,96860.14
2023-01-19T20:04:11.048Z,96855.61
2023-01-19T20:06:44.546Z,96860.80
2023-01-19T20:09:14.316Z,96852.30
2023-01-19T20:11:44.728Z,96852.14
2023-01-19T20:14:14.352Z,96852.23
2023-01-19T20:16:43.186Z,96855.30
2023-01-19T20:19:11.502Z,96850.25
2023-01-19T20:21:42.029Z,96852.73
2023-01-19T20:24:15.836Z,96851.77
2023-01-19T20:26:47.900Z,96855.30
2023-01-19T20:29:16.765Z,96860.59
2023-01-19T20:31:55.016Z,96871.92
2023-01-19T20:34:28.055Z,96873.90
2023-01-19T20:36:57.153Z,96875.69
2023-01-19T20:39:25.394Z,96884.61
2023-01-19T20:41:53.926Z,96887.64
2023-01-19T20:44:25.478Z,96896.64
2023-01-19T20:46:55.323Z,96901.73
2023-01-19T20:49:24.059Z,96908.89
2023-01-19T20:51:52.416Z,96911.52
2023-01-19T20:54:27.089Z,96910.64
2023-01-19T20:56:56.492Z,96906.25
2023-01-19T20:59:24.668Z,96905.02
2023-01-19T21:01:52.933Z,96913.42
2023-01-19T21:04:22.398Z,96919.04
2023-01-19T21:06:50.623Z,96915.72
2023-01-19T21:09:18.744Z,96915.44
2023-01-19T21:11:46.895Z,96919.45
2023-01-19T21:14:15.059Z,96924.00
2023-01-19T21:16:43.265Z,96914.41
2023-01-19T21:19:12.008Z,96917.10
2023-01-19T21:21:40.157Z,96921.14
2023-01-19T21:24:11.003Z,96924.18
2023-01-19T21:26:39.498Z,96926.36
2023-01-19T21:29:10.175Z,96928.33
2023-01-19T21:31:38.283Z,96926.37
2023-01-19T21:34:06.673Z,96919.81
2023-01-19T21:36:34.812Z,96920.41
2023-01-19T21:39:05.067Z,96934.62
2023-01-19T21:41:35.765Z,96948.64
2023-01-19T21:44:04.401Z,96946.77
2023-01-19T21:46:33.890Z,96938.75
2023-01-19T21:49:06.351Z,96932.27
2023-01-19T21:51:37.071Z,96937.20
2023-01-19T21:54:06.926Z,96940.88
2023-01-19T21:56:37.993Z,96943.42
2023-01-19T21:59:06.462Z,96947.17
2023-01-19T22:01:34.983Z,96953.45
2023-01-19T22:04:04.359Z,96968.27
2023-01-19T22:06:32.676Z,96974.56
2023-01-19T22:09:00.856Z,96962.50
2023-01-19T22:11:29.273Z,96949.86
2023-01-19T22:13:59.756Z,96938.46
2023-01-19T22:16:29.783Z,96926.11
2023-01-19T22:19:01.949Z,96917.59
2023-01-19T22:21:35.029Z,96918.61
2023-01-19T22:24:04.914Z,96920.74
2023-01-19T22:26:34.391Z,96923.83
2023-01-19T22:29:05.161Z,96924.80
2023-01-19T22:31:33.396Z,96925.06
2023-01-19T22:34:01.765Z,96927.74
2023-01-19T22:36:33.977Z,96926.77
2023-01-19T22:39:06.630Z,96924.48
2023-01-19T22:41:37.919Z,96925.58
2023-01-19T22:44:10.950Z,96921.90
2023-01-19T22:46:39.357Z,96918.53
2023-01-19T22:49:10.482Z,96913.89
2023-01-19T22:51:39.038Z,96912.00
2023-01-19T22:54:07.783Z,96905.34
2023-01-19T22:56:38.437Z,96897.05
2023-01-19T22:59:07.210Z,96896.78
2023-01-19T23:01:40.244Z,96903.27
2023-01-19T23:04:13.094Z,96912.14
2023-01-19T23:06:42.693Z,96918.05
2023-01-19T23:09:14.055Z,96913.50
2023-01-19T23:11:45.641Z,96913.73
2023-01-19T23:14:16.981Z,96920.41
2023-01-19T23:16:47.182Z,96920.23
2023-01-19T23:19:17.307Z,96916.94
2023-01-19T23:21:46.211Z,96913.60
2023-01-19T23:24:14.313Z,96920.01
2023-01-19T23:26:42.457Z,96921.54
2023-01-19T23:29:14.262Z,96920.21
2023-01-19T23:31:46.978Z,96917.34
2023-01-19T23:34:16.452Z,96921.33
2023-01-19T23:36:44.847Z,96920.43
2023-01-19T23:39:20.548Z,96911.49
2023-01-19T23:41:49.848Z,96904.05
2023-01-19T23:44:18.289Z,96909.90
2023-01-19T23:46:46.916Z,96916.38
2023-01-19T23:49:15.034Z,96918.52
2023-01-19T23:51:43.134Z,96922.17
2023-01-19T23:54:12.346Z,96923.34
2023-01-19T23:56:42.678Z,96920.74
2023-01-19T23:59:14.081Z,96918.25
